createdAt,value
2018-08-20T00:02:25.693Z,100578.61
2018-08-20T00:04:55.279Z,100582.58
2018-08-20T00:07:24.440Z,100580.95
2018-08-20T00:09:53.569Z,100585.11
2018-08-20T00:12:22.806Z,100586.65
2018-08-20T00:14:53.375Z,100580.31
2018-08-20T00:17:22.491Z,100586.92
2018-08-20T00:19:51.861Z,100575.59
2018-08-20T00:22:21.037Z,100573.23
2018-08-20T00:25:01.102Z,100582.02
2018-08-20T00:27:31.961Z,100573.01
2018-08-20T00:30:01.028Z,100578.44
2018-08-20T00:32:30.128Z,100580.02
2018-08-20T00:34:59.205Z,100576.06
2018-08-20T00:37:28.386Z,100571.78
2018-08-20T00:39:57.476Z,100580.42
2018-08-20T00:42:26.614Z,100579.89
2018-08-20T00:44:55.674Z,100584.28
2018-08-20T00:47:24.754Z,100574.60
2018-08-20T00:49:53.797Z,100584.11
2018-08-20T00:52:22.941Z,100577.55
2018-08-20T00:54:52.009Z,100584.65
2018-08-20T00:57:21.148Z,100590.49
2018-08-20T00:59:50.242Z,100583.45
2018-08-20T01:02:23.418Z,100585.45
2018-08-20T01:04:53.060Z,100583.53
2018-08-20T01:07:22.257Z,100588.10
2018-08-20T01:09:51.350Z,100589.87
2018-08-20T01:12:20.453Z,100586.16
2018-08-20T01:14:49.605Z,100586.56
2018-08-20T01:17:18.712Z,100585.45
2018-08-20T01:19:47.765Z,100578.88
2018-08-20T01:22:17.257Z,100576.59
2018-08-20T01:24:46.395Z,100578.98
2018-08-20T01:27:31.946Z,100580.89
2018-08-20T01:30:01.024Z,100579.41
2018-08-20T01:32:30.090Z,100576.51
2018-08-20T01:35:31.241Z,100580.59
2018-08-20T01:38:00.482Z,100577.64
2018-08-20T01:40:29.711Z,100571.45
2018-08-20T01:42:58.822Z,100577.73
2018-08-20T01:45:27.960Z,100577.97
2018-08-20T01:47:57.157Z,100582.02
2018-08-20T01:50:26.198Z,100578.88
2018-08-20T01:52:55.306Z,100581.01
2018-08-20T01:55:24.370Z,100576.73
2018-08-20T01:57:53.552Z,100572.83
2018-08-20T02:00:22.707Z,100562.97
2018-08-20T02:02:53.625Z,100572.22
2018-08-20T02:05:23.632Z,100570.32
2018-08-20T02:07:52.790Z,100566.30
2018-08-20T02:10:21.888Z,100570.13
2018-08-20T02:12:51.155Z,100567.52
2018-08-20T02:15:20.402Z,100566.42
2018-08-20T02:17:49.514Z,100562.44
2018-08-20T02:20:18.704Z,100565.80
2018-08-20T02:22:47.835Z,100564.05
2018-08-20T02:25:17.157Z,100565.52
2018-08-20T02:27:46.317Z,100565.23
2018-08-20T02:30:15.489Z,100571.88
2018-08-20T02:32:44.695Z,100568.02
2018-08-20T02:35:13.879Z,100560.09
2018-08-20T02:37:45.843Z,100563.88
2018-08-20T02:40:15.902Z,100564.39
2018-08-20T02:42:45.118Z,100560.42
2018-08-20T02:45:16.613Z,100560.65
2018-08-20T02:47:46.069Z,100551.47
2018-08-20T02:50:15.872Z,100544.91
2018-08-20T02:52:45.761Z,100544.28
2018-08-20T02:55:14.942Z,100543.51
2018-08-20T02:57:44.098Z,100543.34
2018-08-20T03:00:14.794Z,100537.24
2018-08-20T03:02:43.922Z,100532.76
2018-08-20T03:05:13.578Z,100529.64
2018-08-20T03:07:42.733Z,100534.39
2018-08-20T03:10:13.222Z,100531.97
2018-08-20T03:12:42.670Z,100529.56
2018-08-20T03:15:12.228Z,100532.64
2018-08-20T03:17:41.411Z,100528.33
2018-08-20T03:20:24.131Z,100531.95
2018-08-20T03:22:53.295Z,100538.20
2018-08-20T03:25:22.357Z,100542.69
2018-08-20T03:27:51.467Z,100535.72
2018-08-20T03:30:20.554Z,100545.10
2018-08-20T03:32:49.758Z,100544.34
2018-08-20T03:35:18.985Z,100542.73
2018-08-20T03:37:48.125Z,100538.69
2018-08-20T03:40:17.349Z,100539.41
2018-08-20T03:42:46.523Z,100543.27
2018-08-20T03:45:15.683Z,100540.05
2018-08-20T03:47:44.845Z,100548.43
2018-08-20T03:50:15.285Z,100541.84
2018-08-20T03:52:44.411Z,100542.39
2018-08-20T03:55:13.570Z,100548.65
2018-08-20T03:57:42.745Z,100546.41
2018-08-20T04:00:12.615Z,100551.89
2018-08-20T04:02:41.791Z,100552.76
2018-08-20T04:05:10.881Z,100552.42
2018-08-20T04:07:40.055Z,100551.70
2018-08-20T04:10:09.088Z,100550.55
2018-08-20T04:12:38.237Z,100544.42
2018-08-20T04:15:07.350Z,100543.14
2018-08-20T04:17:36.497Z,100547.03
2018-08-20T04:20:05.593Z,100546.95
2018-08-20T04:22:34.781Z,100545.98
2018-08-20T04:25:03.987Z,100548.31
2018-08-20T04:27:33.141Z,100539.26
2018-08-20T04:30:02.393Z,100545.92
2018-08-20T04:32:31.595Z,100549.52
2018-08-20T04:35:00.975Z,100548.18
2018-08-20T04:37:30.336Z,100545.14
2018-08-20T04:39:59.602Z,100543.39
2018-08-20T04:42:28.972Z,100543.20
2018-08-20T04:44:58.535Z,100550.66
2018-08-20T04:47:27.765Z,100552.90
2018-08-20T04:49:57.080Z,100559.17
2018-08-20T04:52:26.329Z,100557.20
2018-08-20T04:54:55.564Z,100555.91
2018-08-20T04:57:24.704Z,100549.64
2018-08-20T04:59:53.833Z,100565.22
2018-08-20T05:02:23.053Z,100564.78
2018-08-20T05:04:52.214Z,100569.36
2018-08-20T05:07:21.427Z,100577.18
2018-08-20T05:09:50.811Z,100573.64
2018-08-20T05:12:20.093Z,100580.45
2018-08-20T05:14:49.394Z,100583.95
2018-08-20T05:17:18.589Z,100592.55
2018-08-20T05:19:47.895Z,100597.03
2018-08-20T05:22:17.090Z,100599.60
2018-08-20T05:24:46.262Z,100601.94
2018-08-20T05:27:15.450Z,100605.87
2018-08-20T05:29:44.653Z,100606.91
2018-08-20T05:32:13.781Z,100605.55
2018-08-20T05:34:43.044Z,100605.95
2018-08-20T05:37:12.212Z,100613.92
2018-08-20T05:39:41.582Z,100617.85
2018-08-20T05:42:10.728Z,100617.23
2018-08-20T05:44:40.043Z,100620.29
2018-08-20T05:47:09.258Z,100623.39
2018-08-20T05:49:38.588Z,100623.52
2018-08-20T05:52:07.762Z,100626.55
2018-08-20T05:54:37.088Z,100623.89
2018-08-20T05:57:06.507Z,100621.84
2018-08-20T05:59:35.746Z,100634.41
2018-08-20T06:02:04.901Z,100633.73
2018-08-20T06:04:34.766Z,100642.39
2018-08-20T06:07:04.043Z,100642.80
2018-08-20T06:09:33.304Z,100650.16
2018-08-20T06:12:02.493Z,100647.16
2018-08-20T06:14:31.723Z,100650.98
2018-08-20T06:17:00.942Z,100652.75
2018-08-20T06:19:30.233Z,100652.50
2018-08-20T06:21:59.455Z,100655.86
2018-08-20T06:24:28.698Z,100663.42
2018-08-20T06:26:57.879Z,100665.69
2018-08-20T06:29:27.122Z,100663.18
2018-08-20T06:31:56.483Z,100668.13
2018-08-20T06:34:25.849Z,100667.08
2018-08-20T06:36:54.999Z,100668.86
2018-08-20T06:39:24.263Z,100670.47
2018-08-20T06:41:53.468Z,100660.36
2018-08-20T06:44:22.636Z,100670.09
2018-08-20T06:46:51.981Z,100672.37
2018-08-20T06:49:21.324Z,100676.70
2018-08-20T06:51:50.611Z,100679.97
2018-08-20T06:54:19.843Z,100679.16
2018-08-20T06:56:49.152Z,100675.56
2018-08-20T06:59:18.505Z,100680.11
2018-08-20T07:01:47.775Z,100687.91
2018-08-20T07:04:17.037Z,100683.45
2018-08-20T07:06:46.413Z,100687.83
2018-08-20T07:09:28.380Z,100684.06
2018-08-20T07:11:57.707Z,100685.16
2018-08-20T07:14:26.930Z,100686.28
2018-08-20T07:16:56.222Z,100687.08
2018-08-20T07:19:26.311Z,100688.63
2018-08-20T07:21:56.214Z,100692.13
2018-08-20T07:24:25.461Z,100697.14
2018-08-20T07:26:54.637Z,100698.53
2018-08-20T07:29:37.463Z,100697.76
2018-08-20T07:32:08.853Z,100698.20
2018-08-20T07:34:39.597Z,100696.61
2018-08-20T07:37:10.030Z,100693.30
2018-08-20T07:39:39.648Z,100694.49
2018-08-20T07:42:08.979Z,100694.25
2018-08-20T07:44:38.609Z,100689.83
2018-08-20T07:47:08.152Z,100682.68
2018-08-20T07:49:37.452Z,100688.58
2018-08-20T07:52:07.468Z,100689.67
2018-08-20T07:54:37.717Z,100690.91
2018-08-20T07:57:07.963Z,100689.98
2018-08-20T07:59:37.194Z,100690.80
2018-08-20T08:02:06.661Z,100688.51
2018-08-20T08:04:35.888Z,100694.33
2018-08-20T08:07:05.753Z,100692.45
2018-08-20T08:09:35.015Z,100691.20
2018-08-20T08:12:04.332Z,100695.64
2018-08-20T08:14:34.046Z,100699.34
2018-08-20T08:17:03.309Z,100699.43
2018-08-20T08:19:32.468Z,100706.48
2018-08-20T08:22:01.886Z,100698.89
2018-08-20T08:24:31.364Z,100704.25
2018-08-20T08:27:00.935Z,100705.75
2018-08-20T08:29:30.063Z,100702.54
2018-08-20T08:31:59.230Z,100702.32
2018-08-20T08:34:28.476Z,100709.78
2018-08-20T08:36:57.694Z,100702.89
2018-08-20T08:39:26.926Z,100709.52
2018-08-20T08:41:56.154Z,100705.13
2018-08-20T08:44:25.528Z,100703.98
2018-08-20T08:46:54.724Z,100701.75
2018-08-20T08:49:24.831Z,100695.59
2018-08-20T08:51:54.117Z,100695.48
2018-08-20T08:54:23.367Z,100707.30
2018-08-20T08:56:52.735Z,100699.27
2018-08-20T08:59:22.033Z,100693.00
2018-08-20T09:01:51.259Z,100696.19
2018-08-20T09:04:20.476Z,100692.45
2018-08-20T09:06:49.927Z,100684.80
2018-08-20T09:09:19.209Z,100684.88
2018-08-20T09:11:48.418Z,100680.25
2018-08-20T09:14:17.994Z,100675.52
2018-08-20T09:16:47.283Z,100679.78
2018-08-20T09:19:16.446Z,100684.98
2018-08-20T09:21:45.781Z,100675.69
2018-08-20T09:24:14.904Z,100685.19
2018-08-20T09:26:44.115Z,100681.47
2018-08-20T09:29:13.348Z,100682.84
2018-08-20T09:31:42.698Z,100675.83
2018-08-20T09:34:11.886Z,100672.95
2018-08-20T09:36:41.162Z,100670.88
2018-08-20T09:39:10.390Z,100669.80
2018-08-20T09:41:39.655Z,100664.09
2018-08-20T09:44:09.939Z,100667.23
2018-08-20T09:46:39.302Z,100671.91
2018-08-20T09:49:08.513Z,100666.50
2018-08-20T09:51:37.788Z,100669.19
2018-08-20T09:54:06.995Z,100666.92
2018-08-20T09:56:36.529Z,100670.38
2018-08-20T09:59:05.797Z,100667.02
2018-08-20T10:01:35.101Z,100674.73
2018-08-20T10:04:04.340Z,100666.69
2018-08-20T10:06:33.701Z,100665.86
2018-08-20T10:09:02.901Z,100671.98
2018-08-20T10:11:32.139Z,100667.52
2018-08-20T10:14:01.338Z,100668.48
2018-08-20T10:16:30.496Z,100664.48
2018-08-20T10:18:59.777Z,100670.55
2018-08-20T10:21:29.093Z,100666.14
2018-08-20T10:23:58.361Z,100667.27
2018-08-20T10:26:27.610Z,100664.12
2018-08-20T10:28:56.973Z,100665.63
2018-08-20T10:31:26.214Z,100662.28
2018-08-20T10:33:55.441Z,100656.22
2018-08-20T10:36:24.746Z,100666.61
2018-08-20T10:38:53.942Z,100670.14
2018-08-20T10:41:23.214Z,100662.09
2018-08-20T10:43:52.431Z,100662.53
2018-08-20T10:46:25.900Z,100666.71
2018-08-20T10:48:56.478Z,100662.39
2018-08-20T10:51:25.805Z,100656.47
2018-08-20T10:53:55.626Z,100655.55
2018-08-20T10:56:25.063Z,100653.70
2018-08-20T10:58:54.462Z,100656.23
2018-08-20T11:01:23.689Z,100655.59
2018-08-20T11:03:57.333Z,100664.50
2018-08-20T11:06:27.615Z,100657.97
2018-08-20T11:08:57.057Z,100649.59
2018-08-20T11:11:26.271Z,100655.56
2018-08-20T11:13:55.480Z,100648.66
2018-08-20T11:16:24.841Z,100650.00
2018-08-20T11:18:54.125Z,100648.62
2018-08-20T11:21:23.424Z,100649.83
2018-08-20T11:23:52.699Z,100645.20
2018-08-20T11:26:22.011Z,100644.26
2018-08-20T11:28:51.346Z,100650.91
2018-08-20T11:31:20.718Z,100644.68
2018-08-20T11:33:49.994Z,100638.97
2018-08-20T11:36:19.227Z,100633.02
2018-08-20T11:38:48.816Z,100630.50
2018-08-20T11:41:18.068Z,100642.23
2018-08-20T11:43:47.326Z,100633.27
2018-08-20T11:46:16.682Z,100632.86
2018-08-20T11:48:46.064Z,100625.59
2018-08-20T11:51:15.255Z,100630.81
2018-08-20T11:53:45.007Z,100621.19
2018-08-20T11:56:14.297Z,100617.28
2018-08-20T11:58:43.617Z,100620.36
2018-08-20T12:01:12.861Z,100624.75
2018-08-20T12:03:42.099Z,100621.78
2018-08-20T12:06:11.409Z,100620.50
2018-08-20T12:08:40.704Z,100617.88
2018-08-20T12:11:10.119Z,100626.59
2018-08-20T12:13:39.584Z,100628.29
2018-08-20T12:16:09.114Z,100620.53
2018-08-20T12:18:38.379Z,100624.03
2018-08-20T12:21:07.883Z,100626.31
2018-08-20T12:23:37.098Z,100623.37
2018-08-20T12:26:06.327Z,100636.21
2018-08-20T12:28:35.628Z,100621.24
2018-08-20T12:31:04.772Z,100625.80
2018-08-20T12:33:34.092Z,100632.97
2018-08-20T12:36:04.348Z,100629.20
2018-08-20T12:38:34.354Z,100628.93
2018-08-20T12:41:03.531Z,100627.63
2018-08-20T12:43:32.889Z,100632.56
2018-08-20T12:46:02.716Z,100632.73
2018-08-20T12:48:32.442Z,100628.15
2018-08-20T12:51:01.768Z,100623.10
2018-08-20T12:53:31.100Z,100623.42
2018-08-20T12:56:00.409Z,100616.31
2018-08-20T12:58:29.741Z,100619.30
2018-08-20T13:00:59.525Z,100622.04
2018-08-20T13:03:29.332Z,100623.37
2018-08-20T13:05:58.625Z,100625.67
2018-08-20T13:08:28.128Z,100620.91
2018-08-20T13:10:57.509Z,100624.59
2018-08-20T13:13:26.959Z,100624.77
2018-08-20T13:15:56.441Z,100623.47
2018-08-20T13:18:25.765Z,100624.30
2018-08-20T13:20:54.963Z,100620.27
2018-08-20T13:23:24.339Z,100622.56
2018-08-20T13:25:54.034Z,100616.80
2018-08-20T13:28:23.431Z,100613.05
2018-08-20T13:30:52.846Z,100622.40
2018-08-20T13:33:22.226Z,100616.48
2018-08-20T13:35:51.566Z,100604.93
2018-08-20T13:38:21.265Z,100611.45
2018-08-20T13:40:50.594Z,100609.44
2018-08-20T13:43:21.037Z,100605.75
2018-08-20T13:45:50.529Z,100601.34
2018-08-20T13:48:20.625Z,100599.58
2018-08-20T13:50:50.218Z,100602.84
2018-08-20T13:53:20.243Z,100608.69
2018-08-20T13:55:50.593Z,100601.38
2018-08-20T13:58:20.300Z,100601.06
2018-08-20T14:00:49.703Z,100598.98
2018-08-20T14:03:19.364Z,100597.84
2018-08-20T14:05:48.995Z,100598.31
2018-08-20T14:08:19.373Z,100598.17
2018-08-20T14:10:48.912Z,100606.02
2018-08-20T14:13:19.221Z,100603.66
2018-08-20T14:15:48.796Z,100599.80
2018-08-20T14:18:18.209Z,100597.32
2018-08-20T14:21:00.118Z,100596.75
2018-08-20T14:23:29.474Z,100592.66
2018-08-20T14:25:58.905Z,100594.29
2018-08-20T14:28:28.647Z,100589.88
2018-08-20T14:30:57.965Z,100589.31
2018-08-20T14:33:27.349Z,100594.48
2018-08-20T14:35:56.652Z,100590.63
2018-08-20T14:38:25.949Z,100586.45
2018-08-20T14:40:55.404Z,100583.17
2018-08-20T14:43:24.732Z,100593.78
2018-08-20T14:45:58.915Z,100585.94
2018-08-20T14:48:28.329Z,100583.07
2018-08-20T14:50:57.804Z,100585.25
2018-08-20T14:53:27.424Z,100582.63
2018-08-20T14:55:56.777Z,100579.64
2018-08-20T14:58:26.094Z,100576.91
2018-08-20T15:00:55.368Z,100583.08
2018-08-20T15:03:24.787Z,100580.59
2018-08-20T15:05:54.093Z,100577.09
2018-08-20T15:08:23.400Z,100578.79
2018-08-20T15:10:52.796Z,100580.09
2018-08-20T15:13:22.071Z,100575.08
2018-08-20T15:15:51.550Z,100577.61
2018-08-20T15:18:20.880Z,100570.11
2018-08-20T15:20:50.298Z,100570.44
2018-08-20T15:23:19.676Z,100576.54
2018-08-20T15:25:48.943Z,100572.52
2018-08-20T15:28:18.322Z,100566.39
2018-08-20T15:30:47.921Z,100570.84
2018-08-20T15:33:17.339Z,100573.92
2018-08-20T15:35:46.758Z,100574.45
2018-08-20T15:38:16.353Z,100573.14
2018-08-20T15:40:45.797Z,100566.28
2018-08-20T15:43:15.551Z,100568.23
2018-08-20T15:45:44.962Z,100575.41
2018-08-20T15:48:14.158Z,100572.49
2018-08-20T15:50:43.501Z,100569.01
2018-08-20T15:53:13.010Z,100572.77
2018-08-20T15:55:42.558Z,100566.30
2018-08-20T15:58:12.047Z,100567.09
2018-08-20T16:00:41.645Z,100564.39
2018-08-20T16:03:14.777Z,100567.81
2018-08-20T16:05:44.096Z,100564.93
2018-08-20T16:08:13.313Z,100555.70
2018-08-20T16:10:42.718Z,100551.30
2018-08-20T16:13:12.126Z,100559.11
2018-08-20T16:15:41.507Z,100561.49
2018-08-20T16:18:10.749Z,100561.77
2018-08-20T16:20:40.141Z,100556.59
2018-08-20T16:23:09.616Z,100553.78
2018-08-20T16:25:38.958Z,100553.81
2018-08-20T16:28:08.217Z,100543.32
2018-08-20T16:30:37.556Z,100544.04
2018-08-20T16:33:06.811Z,100538.69
2018-08-20T16:35:36.170Z,100544.16
2018-08-20T16:38:05.403Z,100546.71
2018-08-20T16:40:34.813Z,100548.14
2018-08-20T16:43:04.550Z,100541.89
2018-08-20T16:45:34.304Z,100538.94
2018-08-20T16:48:03.525Z,100539.92
2018-08-20T16:50:32.935Z,100536.92
2018-08-20T16:53:02.468Z,100547.57
2018-08-20T16:55:31.787Z,100544.89
2018-08-20T16:58:01.085Z,100547.95
2018-08-20T17:00:30.430Z,100546.53
2018-08-20T17:02:59.610Z,100546.31
2018-08-20T17:05:34.134Z,100538.77
2018-08-20T17:08:03.363Z,100541.80
2018-08-20T17:10:33.309Z,100544.32
2018-08-20T17:13:02.491Z,100545.36
2018-08-20T17:15:31.862Z,100540.11
2018-08-20T17:18:01.085Z,100547.73
2018-08-20T17:20:30.323Z,100549.08
2018-08-20T17:23:11.746Z,100546.13
2018-08-20T17:25:41.111Z,100550.80
2018-08-20T17:28:10.436Z,100547.18
2018-08-20T17:30:39.947Z,100553.14
2018-08-20T17:33:09.516Z,100548.27
2018-08-20T17:35:41.980Z,100563.42
2018-08-20T17:38:11.292Z,100559.70
2018-08-20T17:40:41.084Z,100560.30
2018-08-20T17:43:10.696Z,100559.59
2018-08-20T17:45:39.921Z,100559.63
2018-08-20T17:51:02.255Z,100561.00
2018-08-20T17:53:43.102Z,100568.86
2018-08-20T17:56:12.803Z,100564.38
2018-08-20T17:58:41.979Z,100561.08
2018-08-20T18:01:11.249Z,100564.69
2018-08-20T18:03:43.017Z,100569.77
2018-08-20T18:06:12.321Z,100574.56
2018-08-20T18:08:41.597Z,100573.25
2018-08-20T18:11:12.231Z,100567.05
2018-08-20T18:13:47.966Z,100570.65
2018-08-20T18:16:19.552Z,100569.20
2018-08-20T18:18:51.173Z,100577.45
2018-08-20T18:21:21.516Z,100581.95
2018-08-20T18:23:50.782Z,100583.83
2018-08-20T18:26:20.284Z,100580.76
2018-08-20T18:28:54.242Z,100580.09
2018-08-20T18:31:25.953Z,100586.80
2018-08-20T18:33:55.161Z,100588.53
2018-08-20T18:36:26.372Z,100581.61
2018-08-20T18:38:59.645Z,100590.31
2018-08-20T18:42:17.601Z,100590.74
2018-08-20T18:44:48.379Z,100595.16
2018-08-20T18:47:19.024Z,100600.69
2018-08-20T18:49:53.303Z,100599.45
2018-08-20T18:52:23.972Z,100595.69
2018-08-20T18:54:57.128Z,100601.52
2018-08-20T18:57:33.398Z,100597.96
2018-08-20T19:00:04.742Z,100606.55
2018-08-20T19:02:37.742Z,100604.71
2018-08-20T19:05:09.067Z,100606.91
2018-08-20T19:07:38.273Z,100617.02
2018-08-20T19:10:10.534Z,100613.45
2018-08-20T19:12:39.817Z,100619.45
2018-08-20T19:15:24.273Z,100620.81
2018-08-20T19:17:53.873Z,100612.48
2018-08-20T19:20:23.162Z,100617.31
2018-08-20T19:22:52.345Z,100620.33
2018-08-20T19:25:21.539Z,100630.89
2018-08-20T19:27:50.851Z,100635.59
2018-08-20T19:30:24.378Z,100630.28
2018-08-20T19:32:53.742Z,100635.22
2018-08-20T19:35:22.999Z,100627.98
2018-08-20T19:37:52.274Z,100632.52
2018-08-20T19:40:21.417Z,100633.91
2018-08-20T19:42:53.441Z,100634.27
2018-08-20T19:45:27.281Z,100633.20
2018-08-20T19:47:56.488Z,100633.77
2018-08-20T19:50:25.745Z,100635.75
2018-08-20T19:52:55.017Z,100639.52
2018-08-20T19:55:24.225Z,100642.77
2018-08-20T19:57:53.555Z,100645.65
2018-08-20T20:00:22.685Z,100647.65
2018-08-20T20:02:51.975Z,100649.23
2018-08-20T20:05:21.330Z,100649.95
2018-08-20T20:08:07.085Z,100652.90
2018-08-20T20:10:40.591Z,100657.31
2018-08-20T20:13:10.603Z,100648.32
2018-08-20T20:15:43.788Z,100653.25
2018-08-20T20:18:13.025Z,100649.45
2018-08-20T20:20:42.342Z,100652.37
2018-08-20T20:23:11.564Z,100661.50
2018-08-20T20:25:40.746Z,100662.22
2018-08-20T20:28:10.225Z,100662.84
2018-08-20T20:30:39.455Z,100658.27
2018-08-20T20:33:08.789Z,100660.91
2018-08-20T20:35:38.030Z,100656.81
2018-08-20T20:38:07.407Z,100665.33
2018-08-20T20:40:36.662Z,100661.55
2018-08-20T20:43:05.896Z,100667.39
2018-08-20T20:45:35.054Z,100669.92
2018-08-20T20:48:04.225Z,100668.80
2018-08-20T20:50:33.474Z,100671.77
2018-08-20T20:53:02.912Z,100671.16
2018-08-20T20:55:32.118Z,100674.36
2018-08-20T20:58:01.347Z,100673.90
2018-08-20T21:00:30.493Z,100669.80
2018-08-20T21:03:03.915Z,100673.51
2018-08-20T21:05:33.026Z,100678.34
2018-08-20T21:08:02.156Z,100684.02
2018-08-20T21:10:35.382Z,100684.85
2018-08-20T21:13:04.649Z,100682.38
2018-08-20T21:15:33.861Z,100681.91
2018-08-20T21:18:03.795Z,100677.03
2018-08-20T21:20:32.989Z,100678.93
2018-08-20T21:23:02.145Z,100682.14
2018-08-20T21:25:31.409Z,100686.96
2018-08-20T21:28:00.605Z,100690.84
2018-08-20T21:30:33.844Z,100695.84
2018-08-20T21:33:03.167Z,100699.62
2018-08-20T21:35:32.328Z,100693.06
2018-08-20T21:38:01.557Z,100694.31
2018-08-20T21:40:31.214Z,100697.15
2018-08-20T21:43:00.376Z,100694.35
2018-08-20T21:45:29.571Z,100706.66
2018-08-20T21:47:58.972Z,100706.61
2018-08-20T21:50:28.148Z,100704.06
2018-08-20T21:52:57.345Z,100698.78
2018-08-20T21:55:26.502Z,100707.28
2018-08-20T21:57:56.505Z,100705.38
2018-08-20T22:00:26.235Z,100704.09
2018-08-20T22:03:00.616Z,100702.58
2018-08-20T22:05:30.269Z,100705.30
2018-08-20T22:08:00.648Z,100713.20
2018-08-20T22:10:30.638Z,100719.53
2018-08-20T22:12:59.961Z,100710.00
2018-08-20T22:15:29.204Z,100719.31
2018-08-20T22:17:58.574Z,100720.98
2018-08-20T22:20:27.878Z,100717.28
2018-08-20T22:22:57.085Z,100727.36
2018-08-20T22:25:26.360Z,100726.48
2018-08-20T22:27:56.437Z,100722.50
2018-08-20T22:30:26.070Z,100729.33
2018-08-20T22:32:55.233Z,100730.59
2018-08-20T22:35:26.212Z,100730.49
2018-08-20T22:37:55.409Z,100733.06
2018-08-20T22:40:24.625Z,100729.02
2018-08-20T22:42:57.266Z,100730.83
2018-08-20T22:45:26.494Z,100736.51
2018-08-20T22:47:55.664Z,100734.64
2018-08-20T22:50:24.816Z,100739.96
2018-08-20T22:52:54.148Z,100744.12
2018-08-20T22:55:23.421Z,100746.41
2018-08-20T22:58:09.490Z,100751.16
2018-08-20T23:00:38.755Z,100751.69
2018-08-20T23:03:07.930Z,100749.80
2018-08-20T23:05:37.106Z,100749.41
2018-08-20T23:08:19.706Z,100745.95
2018-08-20T23:10:48.892Z,100746.99
2018-08-20T23:13:18.202Z,100750.97
2018-08-20T23:15:47.542Z,100745.83
2018-08-20T23:18:16.672Z,100752.76
2018-08-20T23:20:47.379Z,100746.57
2018-08-20T23:23:22.030Z,100752.56
2018-08-20T23:25:55.810Z,100746.02
2018-08-20T23:28:25.030Z,100752.31
2018-08-20T23:30:58.221Z,100758.52
2018-08-20T23:33:27.413Z,100751.47
2018-08-20T23:35:56.619Z,100749.48
2018-08-20T23:38:25.908Z,100753.89
2018-08-20T23:40:55.090Z,100755.17
2018-08-20T23:43:24.203Z,100757.25
2018-08-20T23:45:53.391Z,100752.45
2018-08-20T23:48:22.584Z,100748.44
2018-08-20T23:51:08.380Z,100750.12
2018-08-20T23:53:37.601Z,100747.62
2018-08-20T23:56:06.913Z,100742.37
2018-08-20T23:58:36.075Z,100754.82
